New Haven, West Virginia
Current Conditions -  °F | °C
As of 7:35 AM on Thursday 25 Dec 2014 (Local Time) from K3I2 Reporting Station
Overcast Overcast  
Wind Chill: 35°   Ceiling: 4000
Heat Index: 41°   Visibility: 10mi
Dew Point: 36°   Wind: 9mph
Humidity: 81%   Direction: 240°WSW
Pressure: 29.99"   Gusts: NA
Location:  38.99°N, 81.97°W
Report Text: K3I2 251235Z AUTO 24008KT 10SM BKN040 OVC070 05/02 A2999 RMK AO2
Loading
Personal Weather Stations






























Interactive Weather Map New forecast layout! Learn more

10-Day Weather Forecast

Advertisements
Track Severe Weather on mobile